Time;durP1;ratioP1;P1;durP2;ratioP2;P2;SDS_P1;SDS_P2;PMS_P1;PMS_P2;Temp;Humidity;BMP_temperature;BMP_pressure;BME280_temperature;BME280_humidity;BME280_pressure;Samples;Min_cycle;Max_cycle;Signal;HPM_P1;HPM_P2
2022/12/06 00:01:40;;;;;;;8.77;6.53;;;;;;;3.01;100.00;99372.69;5128428;27;20186;-79
2022/12/06 00:04:12;;;;;;;7.47;6.20;;;;;;;3.19;100.00;99376.53;5131792;27;20214;-79
2022/12/06 00:06:46;;;;;;;8.87;6.07;;;;;;;3.04;100.00;99364.75;5127925;27;20221;-79
2022/12/06 00:09:18;;;;;;;8.00;5.67;;;;;;;3.20;100.00;99364.28;5130215;27;20274;-79
2022/12/06 00:11:46;;;;;;;8.13;5.93;;;;;;;3.17;100.00;99360.84;5117799;27;20192;-79
2022/12/06 00:14:15;;;;;;;7.33;6.30;;;;;;;3.00;100.00;99359.66;5071738;28;20192;-79
2022/12/06 00:16:44;;;;;;;9.30;6.10;;;;;;;3.06;100.00;99362.94;5097552;27;20650;-79
2022/12/06 00:19:14;;;;;;;8.20;6.33;;;;;;;3.17;100.00;99360.84;5074128;28;20310;-79
2022/12/06 00:21:46;;;;;;;7.70;6.03;;;;;;;3.08;100.00;99361.13;5092665;28;20202;-79
2022/12/06 00:24:17;;;;;;;7.40;5.83;;;;;;;3.10;100.00;99368.94;5090811;28;20215;-79
2022/12/06 00:26:48;;;;;;;6.93;5.80;;;;;;;3.14;100.00;99363.56;5085353;28;20199;-79
2022/12/06 00:29:19;;;;;;;7.33;5.87;;;;;;;3.03;100.00;99363.03;5090327;28;20241;-81
2022/12/06 00:31:49;;;;;;;10.80;6.20;;;;;;;2.85;100.00;99353.13;5090445;28;20192;-78
2022/12/06 00:34:21;;;;;;;9.37;6.40;;;;;;;2.83;100.00;99358.41;5091424;28;20203;-78
2022/12/06 00:36:51;;;;;;;7.17;5.97;;;;;;;2.91;100.00;99366.03;5092473;28;20191;-79
2022/12/06 00:39:20;;;;;;;7.97;6.53;;;;;;;3.03;100.00;99356.94;5068692;28;20192;-78
2022/12/06 00:41:49;;;;;;;9.27;6.70;;;;;;;3.00;100.00;99349.22;5092585;28;20200;-79
2022/12/06 00:44:20;;;;;;;8.20;6.40;;;;;;;2.92;100.00;99354.66;5093390;28;20187;-78
2022/12/06 00:46:49;;;;;;;8.57;6.43;;;;;;;2.98;100.00;99358.84;5091416;28;20194;-78
2022/12/06 00:49:17;;;;;;;7.80;6.23;;;;;;;2.95;100.00;99351.94;5097190;27;20199;-79
2022/12/06 00:51:46;;;;;;;7.77;6.53;;;;;;;2.98;100.00;99356.22;5045854;28;20204;-79
2022/12/06 00:54:16;;;;;;;11.27;6.93;;;;;;;3.01;100.00;99348.31;5053063;28;20726;-79
2022/12/06 00:56:45;;;;;;;8.37;6.60;;;;;;;2.95;100.00;99354.56;5053742;28;20270;-79
2022/12/06 00:59:13;;;;;;;8.77;6.87;;;;;;;2.85;100.00;99356.59;5054023;28;20193;-78
2022/12/06 01:01:42;;;;;;;7.97;6.60;;;;;;;3.02;100.00;99350.00;5050771;28;20211;-78
2022/12/06 01:04:10;;;;;;;7.73;6.37;;;;;;;2.90;100.00;99350.38;5020775;28;20239;-78
2022/12/06 01:06:39;;;;;;;8.87;6.70;;;;;;;2.81;100.00;99341.91;5034771;28;20231;-78
2022/12/06 01:09:10;;;;;;;8.77;6.00;;;;;;;2.92;100.00;99344.19;5056338;28;20261;-79
2022/12/06 01:11:40;;;;;;;8.57;6.60;;;;;;;2.96;100.00;99342.34;5096132;28;20195;-78
2022/12/06 01:14:09;;;;;;;8.30;6.27;;;;;;;2.84;100.00;99344.41;5096048;28;20188;-81
2022/12/06 01:16:39;;;;;;;8.90;6.30;;;;;;;2.82;100.00;99346.22;5101247;27;20204;-79
2022/12/06 01:19:08;;;;;;;8.17;6.53;;;;;;;2.67;100.00;99338.81;5095743;28;20199;-79
2022/12/06 01:21:37;;;;;;;7.97;6.23;;;;;;;2.75;100.00;99333.38;5076485;28;20662;-78
2022/12/06 01:24:06;;;;;;;8.97;6.40;;;;;;;2.65;100.00;99332.78;5094724;28;20252;-79
2022/12/06 01:26:35;;;;;;;7.73;5.97;;;;;;;2.82;100.00;99333.16;5093288;28;20280;-79
2022/12/06 01:29:05;;;;;;;7.93;6.37;;;;;;;2.62;100.00;99335.50;5096024;28;20195;-78
2022/12/06 01:31:35;;;;;;;10.00;6.53;;;;;;;2.75;100.00;99343.84;5097104;28;20195;-79
2022/12/06 01:34:07;;;;;;;7.10;5.63;;;;;;;2.81;100.00;99344.53;5073852;28;20191;-79
2022/12/06 01:36:36;;;;;;;8.50;6.53;;;;;;;2.85;100.00;99340.91;5093317;28;20283;-81
2022/12/06 01:39:09;;;;;;;7.27;6.23;;;;;;;2.65;100.00;99335.41;5059757;28;20184;-80
2022/12/06 01:41:39;;;;;;;9.43;7.13;;;;;;;2.59;100.00;99331.19;5097894;27;20241;-79
2022/12/06 01:44:40;;;;;;;8.97;6.50;;;;;;;2.79;100.00;99337.59;5095465;28;20253;-78
2022/12/06 01:47:13;;;;;;;7.63;6.60;;;;;;;2.63;100.00;99339.81;5051886;28;20197;-78
2022/12/06 01:49:50;;;;;;;7.77;6.00;;;;;;;2.69;100.00;99334.41;5053094;28;20291;-78
2022/12/06 01:52:19;;;;;;;7.90;6.07;;;;;;;2.61;100.00;99338.16;5051145;28;20250;-78
2022/12/06 01:54:47;;;;;;;7.80;6.50;;;;;;;2.76;100.00;99335.09;5051760;28;20196;-78
2022/12/06 01:57:17;;;;;;;8.23;6.37;;;;;;;2.84;100.00;99338.34;5049879;28;20239;-78
2022/12/06 01:59:48;;;;;;;8.03;6.33;;;;;;;2.84;100.00;99333.97;5051831;28;20205;-79
2022/12/06 02:02:19;;;;;;;7.07;5.90;;;;;;;2.66;100.00;99329.25;5052689;28;20205;-78
2022/12/06 02:04:48;;;;;;;6.70;6.00;;;;;;;2.74;100.00;99329.91;5053081;28;20284;-78
2022/12/06 02:07:17;;;;;;;7.73;6.00;;;;;;;2.59;100.00;99327.72;5053776;28;20221;-78
2022/12/06 02:09:47;;;;;;;7.70;6.03;;;;;;;2.75;100.00;99325.53;5058819;28;20204;-79
2022/12/06 02:12:17;;;;;;;7.33;6.33;;;;;;;2.86;100.00;99326.91;5052854;28;20323;-79
2022/12/06 02:14:52;;;;;;;8.67;6.00;;;;;;;2.77;100.00;99328.94;5052582;28;20228;-78
2022/12/06 02:17:36;;;;;;;6.97;5.70;;;;;;;2.49;100.00;99323.66;5051267;28;20197;-79
2022/12/06 02:20:13;;;;;;;7.50;6.30;;;;;;;2.49;100.00;99323.66;5032941;28;20193;-78
2022/12/06 02:23:05;;;;;;;7.50;6.50;;;;;;;2.51;100.00;99322.75;5052173;28;20250;-78
2022/12/06 02:25:53;;;;;;;7.47;5.60;;;;;;;2.71;100.00;99321.31;5081193;28;20211;-81
2022/12/06 02:28:43;;;;;;;7.27;6.27;;;;;;;2.60;100.00;99316.34;5072419;28;20184;-81
2022/12/06 02:31:23;;;;;;;7.67;6.10;;;;;;;2.65;100.00;99319.72;5080040;28;20199;-81
2022/12/06 02:33:57;;;;;;;8.13;6.30;;;;;;;2.57;100.00;99321.69;5055093;28;20204;-80
2022/12/06 02:36:32;;;;;;;7.43;6.63;;;;;;;2.54;100.00;99317.41;5096866;27;20199;-80
2022/12/06 02:39:08;;;;;;;8.07;6.30;;;;;;;2.52;100.00;99319.22;5092905;28;20194;-80
2022/12/06 02:41:41;;;;;;;7.53;6.33;;;;;;;2.62;100.00;99309.34;5094483;28;20685;-80
2022/12/06 02:44:17;;;;;;;7.60;5.93;;;;;;;2.52;100.00;99310.53;5092413;28;20195;-80
2022/12/06 02:46:49;;;;;;;6.90;5.73;;;;;;;2.59;100.00;99314.66;5094570;28;20219;-80
2022/12/06 02:49:19;;;;;;;7.63;6.33;;;;;;;2.62;100.00;99324.19;5071749;28;20189;-80
2022/12/06 02:51:49;;;;;;;7.33;6.00;;;;;;;2.62;100.00;99316.34;5069234;28;20227;-80
2022/12/06 02:54:20;;;;;;;7.20;6.13;;;;;;;2.51;100.00;99314.00;5070110;28;20196;-80
2022/12/06 02:56:48;;;;;;;7.53;6.20;;;;;;;2.56;100.00;99312.13;5068731;28;20218;-80
2022/12/06 02:59:16;;;;;;;7.00;5.93;;;;;;;2.45;100.00;99317.69;5066526;28;20233;-80
2022/12/06 03:01:50;;;;;;;8.93;5.90;;;;;;;2.50;100.00;99312.28;5068025;28;20196;-80
2022/12/06 03:04:45;;;;;;;6.77;5.93;;;;;;;2.52;100.00;99310.53;5071454;28;20189;-80
2022/12/06 03:07:27;;;;;;;8.63;6.33;;;;;;;2.45;100.00;99301.13;5079092;28;20231;-79
2022/12/06 03:10:10;;;;;;;7.67;6.00;;;;;;;2.46;100.00;99305.47;5088900;28;20191;-78
2022/12/06 03:12:43;;;;;;;8.93;6.17;;;;;;;2.43;100.00;99305.56;5093907;28;20188;-79
2022/12/06 03:15:16;;;;;;;7.50;6.70;;;;;;;2.40;100.00;99306.47;5099095;27;20196;-78
2022/12/06 03:17:54;;;;;;;8.70;6.20;;;;;;;2.44;100.00;99307.25;5096009;28;20191;-78
2022/12/06 03:20:41;;;;;;;7.70;6.50;;;;;;;2.43;100.00;99308.19;5093832;28;20232;-78
2022/12/06 03:23:13;;;;;;;7.83;6.03;;;;;;;2.46;100.00;99310.69;5093675;28;20193;-79
2022/12/06 03:25:44;;;;;;;7.60;5.97;;;;;;;2.42;100.00;99306.47;5093118;28;20202;-78
2022/12/06 03:28:16;;;;;;;7.07;6.30;;;;;;;2.53;100.00;99310.47;5095637;27;20196;-81
2022/12/06 03:30:48;;;;;;;7.23;6.07;;;;;;;2.26;100.00;99301.66;5091582;28;20199;-78
2022/12/06 03:33:28;;;;;;;7.83;6.10;;;;;;;2.36;100.00;99299.63;5091794;28;20184;-78
2022/12/06 03:35:58;;;;;;;6.93;5.73;;;;;;;2.29;100.00;99306.78;5096006;27;20199;-78
2022/12/06 03:38:32;;;;;;;8.40;6.67;;;;;;;2.29;100.00;99298.94;5094707;27;20253;-78
2022/12/06 03:41:05;;;;;;;7.30;6.33;;;;;;;2.35;100.00;99304.91;5093395;28;20247;-78
2022/12/06 03:43:33;;;;;;;7.07;5.93;;;;;;;2.45;100.00;99298.53;5093082;28;20724;-79
2022/12/06 03:46:07;;;;;;;7.17;6.07;;;;;;;2.50;100.00;99305.31;5092905;28;20208;-79
2022/12/06 03:48:48;;;;;;;7.70;6.03;;;;;;;2.50;100.00;99301.84;5092083;28;20336;-78
2022/12/06 03:51:22;;;;;;;7.83;6.20;;;;;;;2.59;100.00;99294.59;5092880;28;20188;-78
2022/12/06 03:53:53;;;;;;;7.33;6.40;;;;;;;2.51;100.00;99295.72;5089990;28;20192;-78
2022/12/06 03:56:23;;;;;;;7.30;6.07;;;;;;;2.58;100.00;99297.25;5093112;28;20196;-78
2022/12/06 03:58:52;;;;;;;7.57;6.53;;;;;;;2.42;100.00;99285.56;5093154;28;20672;-79
2022/12/06 04:01:20;;;;;;;7.23;6.07;;;;;;;2.45;100.00;99290.69;5094557;27;20204;-80
2022/12/06 04:03:51;;;;;;;7.90;6.70;;;;;;;2.55;100.00;99300.81;5090659;28;20719;-78
2022/12/06 04:06:19;;;;;;;7.47;6.30;;;;;;;2.61;100.00;99297.19;5090616;28;20319;-79
2022/12/06 04:08:48;;;;;;;8.27;6.37;;;;;;;2.67;100.00;99286.53;5089196;28;20284;-78
2022/12/06 04:11:16;;;;;;;7.50;6.27;;;;;;;2.58;100.00;99284.19;5095685;27;20264;-79
2022/12/06 04:13:45;;;;;;;7.67;6.53;;;;;;;2.65;100.00;99280.50;5088600;28;20204;-79
2022/12/06 04:19:01;;;;;;;8.93;6.80;;;;;;;2.57;100.00;99269.41;5092740;28;20199;-79
2022/12/06 04:24:15;;;;;;;8.93;6.50;;;;;;;2.64;100.00;99264.84;5091459;28;20199;-79
2022/12/06 04:26:45;;;;;;;9.00;6.87;;;;;;;2.38;100.00;99256.00;5092575;28;20215;-79
2022/12/06 04:40:19;;;;;;;8.93;7.27;;;;;;;2.27;100.00;99266.78;5089779;28;20225;-79
2022/12/06 04:45:34;;;;;;;8.43;7.03;;;;;;;2.57;100.00;99272.88;5092260;28;20194;-78
2022/12/06 04:48:02;;;;;;;11.10;7.07;;;;;;;2.49;100.00;99264.38;5091361;28;20219;-78
2022/12/06 04:50:32;;;;;;;10.30;7.67;;;;;;;2.50;100.00;99257.41;5090207;28;20199;-81
2022/12/06 04:53:02;;;;;;;9.07;7.73;;;;;;;2.42;100.00;99252.44;5092431;28;20195;-79
2022/12/06 04:55:34;;;;;;;8.50;6.73;;;;;;;2.59;100.00;99255.38;5072482;28;20274;-78
2022/12/06 04:58:03;;;;;;;10.40;7.53;;;;;;;2.34;100.00;99259.63;5092254;28;20203;-78
2022/12/06 05:00:31;;;;;;;10.67;7.50;;;;;;;2.40;100.00;99263.81;5097515;27;20204;-78
2022/12/06 05:03:00;;;;;;;10.13;7.70;;;;;;;2.53;100.00;99273.03;5056715;28;20662;-78
2022/12/06 05:05:29;;;;;;;9.00;7.30;;;;;;;2.66;100.00;99268.28;5092237;28;20199;-78
2022/12/06 05:07:59;;;;;;;10.57;8.20;;;;;;;2.73;100.00;99270.66;5091642;28;20670;-78
2022/12/06 05:10:27;;;;;;;10.67;8.00;;;;;;;2.63;100.00;99269.22;5086242;28;20202;-78
2022/12/06 05:12:56;;;;;;;9.60;7.70;;;;;;;2.38;100.00;99260.38;5040302;28;20188;-79
2022/12/06 05:15:25;;;;;;;10.07;8.07;;;;;;;2.48;100.00;99267.91;5090064;28;20199;-79
2022/12/06 05:17:57;;;;;;;9.77;7.57;;;;;;;2.46;100.00;99271.47;5092343;28;20202;-79
2022/12/06 05:20:26;;;;;;;9.33;7.40;;;;;;;2.50;100.00;99270.47;5087771;28;20253;-79
2022/12/06 05:22:56;;;;;;;9.70;7.97;;;;;;;2.41;100.00;99260.28;5092146;28;20241;-79
2022/12/06 05:25:25;;;;;;;9.90;7.93;;;;;;;2.51;100.00;99261.72;5087387;28;20707;-79
2022/12/06 05:27:54;;;;;;;11.80;8.07;;;;;;;2.65;100.00;99271.78;5090347;28;20249;-79
2022/12/06 05:30:22;;;;;;;9.50;7.63;;;;;;;2.66;100.00;99263.91;5092354;28;20199;-79
2022/12/06 05:32:50;;;;;;;10.23;8.23;;;;;;;2.68;100.00;99269.06;5094572;28;20201;-79
2022/12/06 05:35:24;;;;;;;10.23;8.37;;;;;;;2.69;100.00;99261.19;5092679;28;20204;-79
2022/12/06 05:37:53;;;;;;;11.17;7.57;;;;;;;2.65;100.00;99258.72;5093995;28;20188;-79
2022/12/06 05:40:21;;;;;;;9.73;8.03;;;;;;;2.75;100.00;99258.38;5094854;28;20273;-81
2022/12/06 05:42:56;;;;;;;10.60;8.63;;;;;;;2.57;100.00;99261.56;5090200;28;20192;-78
2022/12/06 05:45:24;;;;;;;11.63;8.53;;;;;;;2.58;100.00;99258.03;5093257;28;20183;-78
2022/12/06 05:47:52;;;;;;;10.40;8.43;;;;;;;2.54;100.00;99257.28;5095402;28;20215;-78
2022/12/06 05:50:20;;;;;;;10.20;8.23;;;;;;;2.62;100.00;99259.69;5096819;28;20195;-78
2022/12/06 05:52:49;;;;;;;11.97;8.57;;;;;;;2.55;100.00;99258.13;5097767;28;20188;-78
2022/12/06 05:55:17;;;;;;;11.67;8.80;;;;;;;2.55;100.00;99261.59;5093961;28;20191;-79
2022/12/06 05:57:46;;;;;;;9.53;7.97;;;;;;;2.62;100.00;99266.66;5092706;28;20195;-79
2022/12/06 06:00:18;;;;;;;11.47;8.43;;;;;;;2.68;100.00;99264.69;5092358;28;20358;-78
2022/12/06 06:02:48;;;;;;;11.03;8.70;;;;;;;2.73;100.00;99261.97;5094819;28;20196;-79
2022/12/06 06:05:17;;;;;;;10.03;8.50;;;;;;;2.68;100.00;99259.47;5097320;27;20204;-78
2022/12/06 06:07:46;;;;;;;11.00;8.53;;;;;;;2.72;100.00;99255.03;5096744;27;20251;-78
2022/12/06 06:10:15;;;;;;;11.80;8.73;;;;;;;2.77;100.00;99261.81;5094061;28;20194;-78
2022/12/06 06:12:44;;;;;;;11.53;8.50;;;;;;;2.72;100.00;99261.09;5094887;27;20196;-79
2022/12/06 06:15:14;;;;;;;10.20;8.00;;;;;;;2.66;100.00;99256.06;5094350;28;20187;-78
2022/12/06 06:17:44;;;;;;;10.00;8.10;;;;;;;2.68;100.00;99256.84;5094585;28;20663;-78
2022/12/06 06:20:13;;;;;;;10.67;7.90;;;;;;;2.62;100.00;99251.84;5094290;28;20196;-78
2022/12/06 06:22:42;;;;;;;11.27;8.30;;;;;;;2.59;100.00;99257.13;5092785;28;20203;-78
2022/12/06 06:25:11;;;;;;;11.43;8.93;;;;;;;2.66;100.00;99256.06;5093094;28;20192;-79
2022/12/06 06:27:39;;;;;;;11.20;8.40;;;;;;;2.69;100.00;99261.19;5090910;28;20247;-78
2022/12/06 06:30:14;;;;;;;9.77;8.30;;;;;;;2.67;100.00;99260.38;5092082;28;20274;-78
2022/12/06 06:32:44;;;;;;;11.40;8.47;;;;;;;2.64;100.00;99263.09;5094212;28;20264;-78
2022/12/06 06:35:18;;;;;;;10.43;8.57;;;;;;;2.59;100.00;99268.44;5092106;28;20199;-78
2022/12/06 06:37:47;;;;;;;11.23;9.03;;;;;;;2.51;100.00;99259.13;5094076;28;20199;-78
2022/12/06 06:40:15;;;;;;;11.17;8.60;;;;;;;2.42;100.00;99260.28;5090855;28;20183;-78
2022/12/06 06:42:44;;;;;;;12.50;8.67;;;;;;;2.63;100.00;99265.75;5092101;28;20188;-78
2022/12/06 06:45:13;;;;;;;11.47;8.53;;;;;;;2.43;100.00;99255.91;5093659;28;20188;-79
2022/12/06 06:47:44;;;;;;;10.77;8.13;;;;;;;2.52;100.00;99263.47;5094030;28;20242;-79
2022/12/06 06:50:13;;;;;;;9.60;8.17;;;;;;;2.50;100.00;99258.25;5094024;28;20229;-78
2022/12/06 06:52:42;;;;;;;9.27;8.20;;;;;;;2.37;100.00;99266.53;5092966;28;20195;-78
2022/12/06 06:55:10;;;;;;;10.63;8.03;;;;;;;2.48;100.00;99259.22;5098553;27;20191;-78
2022/12/06 06:57:40;;;;;;;11.03;8.27;;;;;;;2.53;100.00;99268.66;5089069;28;20199;-78
2022/12/06 07:00:10;;;;;;;11.70;8.97;;;;;;;2.33;100.00;99263.16;5051423;28;20318;-79
2022/12/06 07:02:39;;;;;;;10.40;8.07;;;;;;;2.56;100.00;99267.69;5047456;28;20197;-79
2022/12/06 07:05:10;;;;;;;10.93;8.33;;;;;;;2.53;100.00;99266.03;5049318;28;20269;-79
2022/12/06 07:07:38;;;;;;;10.63;8.13;;;;;;;2.52;100.00;99272.16;5044518;28;20228;-78
2022/12/06 07:10:08;;;;;;;10.20;8.00;;;;;;;2.60;100.00;99269.28;5043958;28;20197;-78
2022/12/06 07:12:38;;;;;;;10.70;8.37;;;;;;;2.62;100.00;99261.44;5046950;28;20226;-78
2022/12/06 07:15:08;;;;;;;10.97;8.33;;;;;;;2.65;100.00;99275.25;5051230;28;20193;-78
2022/12/06 07:17:36;;;;;;;11.63;8.37;;;;;;;2.67;100.00;99270.84;5052355;28;20673;-79
2022/12/06 07:20:06;;;;;;;10.40;7.77;;;;;;;2.67;100.00;99273.44;5050510;28;20269;-78
2022/12/06 07:22:36;;;;;;;9.63;7.90;;;;;;;2.70;100.00;99282.94;5045920;28;20231;-78
2022/12/06 07:25:05;;;;;;;9.30;7.40;;;;;;;2.66;100.00;99268.28;5045926;28;20640;-78
2022/12/06 07:27:35;;;;;;;10.93;8.20;;;;;;;2.64;100.00;99275.31;5045483;28;20190;-78
2022/12/06 07:30:05;;;;;;;10.73;7.80;;;;;;;2.70;100.00;99270.75;5049616;28;20193;-78
2022/12/06 07:32:36;;;;;;;12.07;7.30;;;;;;;2.63;100.00;99274.47;5050817;28;20300;-78
2022/12/06 07:35:05;;;;;;;10.77;7.40;;;;;;;2.63;100.00;99273.59;5050623;28;20671;-79
2022/12/06 07:37:33;;;;;;;9.27;7.77;;;;;;;2.65;100.00;99277.03;5051627;28;20203;-78
2022/12/06 07:40:06;;;;;;;10.20;7.47;;;;;;;2.71;100.00;99276.84;5091980;28;20195;-78
2022/12/06 07:45:20;;;;;;;9.97;7.60;;;;;;;2.54;100.00;99291.28;5095450;27;20203;-78
2022/12/06 07:47:48;;;;;;;8.10;6.77;;;;;;;2.52;100.00;99287.84;5092831;28;20184;-79
2022/12/06 07:50:19;;;;;;;9.17;7.37;;;;;;;2.49;100.00;99292.28;5089546;28;20628;-79
2022/12/06 07:52:50;;;;;;;10.97;8.53;;;;;;;2.37;100.00;99290.91;5093432;28;20248;-78
2022/12/06 07:55:20;;;;;;;9.13;7.57;;;;;;;2.50;100.00;99288.78;5092351;28;20192;-79
2022/12/06 07:57:49;;;;;;;10.27;7.40;;;;;;;2.43;100.00;99290.72;5068072;28;20253;-78
2022/12/06 08:00:18;;;;;;;9.63;7.20;;;;;;;2.58;100.00;99298.09;5091755;28;20195;-78
2022/12/06 08:02:46;;;;;;;9.27;7.13;;;;;;;2.63;100.00;99290.16;5052285;28;20709;-78
2022/12/06 08:05:15;;;;;;;10.30;7.47;;;;;;;2.58;100.00;99292.88;5086348;28;20200;-78
2022/12/06 08:07:47;;;;;;;10.27;7.40;;;;;;;2.48;100.00;99299.28;5049739;28;20414;-79
2022/12/06 08:10:21;;;;;;;7.87;6.20;;;;;;;2.55;100.00;99302.59;5041295;28;20229;-79
2022/12/06 08:12:50;;;;;;;8.90;6.33;;;;;;;2.55;100.00;99299.97;5044668;28;20248;-78
2022/12/06 08:15:18;;;;;;;9.80;6.93;;;;;;;2.47;100.00;99300.19;5050193;28;20220;-78
2022/12/06 08:17:46;;;;;;;8.87;6.87;;;;;;;2.53;100.00;99297.41;5047763;28;20199;-78
2022/12/06 08:20:15;;;;;;;9.33;6.83;;;;;;;2.57;100.00;99300.78;5050015;28;20321;-79
2022/12/06 08:22:44;;;;;;;8.93;6.93;;;;;;;2.58;100.00;99303.34;5047668;28;20308;-78
2022/12/06 08:25:15;;;;;;;8.73;6.47;;;;;;;2.66;100.00;99300.50;5054665;28;20207;-79
2022/12/06 08:27:45;;;;;;;10.57;6.97;;;;;;;2.65;100.00;99296.19;5087974;28;20195;-80
2022/12/06 08:30:14;;;;;;;8.17;6.33;;;;;;;2.75;100.00;99299.38;5092182;28;20212;-80
2022/12/06 08:32:44;;;;;;;8.97;6.63;;;;;;;2.87;100.00;99299.84;5092068;28;20245;-80
2022/12/06 08:35:13;;;;;;;8.23;6.37;;;;;;;2.63;100.00;99298.00;5092523;28;20192;-80
2022/12/06 08:37:41;;;;;;;7.40;6.03;;;;;;;2.93;100.00;99311.91;5092029;28;20196;-80
2022/12/06 08:40:10;;;;;;;8.97;6.33;;;;;;;2.85;100.00;99290.34;5088130;28;20195;-80
2022/12/06 08:42:40;;;;;;;7.80;6.13;;;;;;;2.90;100.00;99300.69;5093427;28;20249;-80
2022/12/06 08:45:11;;;;;;;8.40;6.43;;;;;;;2.98;100.00;99302.13;5091165;28;20256;-80
2022/12/06 08:47:41;;;;;;;9.10;6.03;;;;;;;2.79;100.00;99299.22;5090236;28;20199;-81
2022/12/06 08:50:10;;;;;;;7.80;5.67;;;;;;;2.95;100.00;99298.78;5084922;28;20280;-80
2022/12/06 08:52:39;;;;;;;8.30;5.83;;;;;;;2.94;100.00;99297.91;5087969;28;20646;-79
2022/12/06 08:55:08;;;;;;;8.23;6.03;;;;;;;3.04;100.00;99301.09;5091596;28;20201;-80
2022/12/06 08:57:37;;;;;;;8.63;6.67;;;;;;;3.09;100.00;99307.91;5071218;28;20196;-78
2022/12/06 09:00:08;;;;;;;7.30;5.67;;;;;;;3.01;100.00;99307.28;5092133;28;20196;-78
2022/12/06 09:02:40;;;;;;;8.23;6.10;;;;;;;3.02;100.00;99303.78;5091442;28;20199;-78
2022/12/06 09:05:09;;;;;;;7.57;5.73;;;;;;;3.16;100.00;99300.69;5090120;28;20211;-78
2022/12/06 09:07:38;;;;;;;8.37;6.13;;;;;;;3.15;100.00;99310.31;5093115;28;20229;-78
2022/12/06 09:10:08;;;;;;;8.40;6.27;;;;;;;3.18;100.00;99306.75;5097071;27;20302;-78
2022/12/06 09:12:37;;;;;;;7.87;5.97;;;;;;;3.17;100.00;99305.03;5090997;28;20260;-79
2022/12/06 09:15:06;;;;;;;8.90;6.10;;;;;;;3.25;100.00;99302.19;5093098;28;20247;-78
2022/12/06 09:17:36;;;;;;;9.03;6.23;;;;;;;3.23;100.00;99306.59;5095679;28;20188;-78
2022/12/06 09:20:08;;;;;;;7.60;6.13;;;;;;;3.25;100.00;99313.50;5093619;28;20293;-79
2022/12/06 09:22:37;;;;;;;9.27;6.33;;;;;;;3.28;100.00;99310.81;5095551;28;20187;-78
2022/12/06 09:25:06;;;;;;;8.43;5.67;;;;;;;3.32;100.00;99312.41;5092049;28;20276;-78
2022/12/06 09:27:34;;;;;;;7.87;5.70;;;;;;;3.26;100.00;99307.34;5030545;28;20251;-78
2022/12/06 09:30:04;;;;;;;9.40;6.50;;;;;;;3.26;100.00;99312.59;5030531;28;20288;-78
2022/12/06 09:32:34;;;;;;;7.53;5.77;;;;;;;3.29;100.00;99311.66;5028325;28;20210;-78
2022/12/06 09:35:03;;;;;;;7.70;6.03;;;;;;;3.25;100.00;99313.50;5033387;28;20243;-78
2022/12/06 09:37:34;;;;;;;7.47;5.80;;;;;;;3.41;100.00;99306.03;5031144;28;20202;-78
2022/12/06 09:40:12;;;;;;;10.83;6.07;;;;;;;3.31;100.00;99307.22;5031895;28;20271;-78
2022/12/06 09:43:04;;;;;;;7.17;5.43;;;;;;;3.38;100.00;99303.50;5030515;28;20201;-79
2022/12/06 09:45:56;;;;;;;6.67;5.50;;;;;;;3.27;100.00;99311.69;5029803;28;20201;-78
2022/12/06 09:48:55;;;;;;;7.80;5.67;;;;;;;3.35;100.00;99309.69;5030279;28;20252;-78
2022/12/06 09:51:43;;;;;;;9.80;6.00;;;;;;;3.40;100.00;99307.78;5038167;28;20196;-78
2022/12/06 09:54:25;;;;;;;9.43;5.83;;;;;;;3.47;100.00;99311.03;5090484;28;20261;-79
2022/12/06 09:57:00;;;;;;;6.90;5.40;;;;;;;3.51;100.00;99304.81;5093137;28;20191;-79
2022/12/06 09:59:37;;;;;;;21.33;13.53;;;;;;;3.43;100.00;99306.81;5094418;28;20191;-78
2022/12/06 10:02:38;;;;;;;9.87;5.80;;;;;;;3.57;100.00;99303.72;5094002;28;20253;-79
2022/12/06 10:05:31;;;;;;;8.33;6.40;;;;;;;3.62;100.00;99307.94;5095135;28;20192;-79
2022/12/06 10:08:08;;;;;;;8.47;5.67;;;;;;;3.65;100.00;99302.56;5095128;27;20215;-78
2022/12/06 10:10:55;;;;;;;8.07;5.97;;;;;;;3.76;100.00;99296.13;5087496;28;20264;-78
2022/12/06 10:13:38;;;;;;;8.40;5.60;;;;;;;3.76;100.00;99296.97;5092937;28;20249;-79
2022/12/06 10:16:19;;;;;;;6.03;4.67;;;;;;;3.85;100.00;99296.66;5092858;28;20198;-78
2022/12/06 10:19:02;;;;;;;6.70;5.60;;;;;;;3.79;100.00;99289.03;5091608;28;20319;-78
2022/12/06 10:21:43;;;;;;;7.10;5.27;;;;;;;3.77;100.00;99298.72;5088326;28;20225;-78
2022/12/06 10:24:26;;;;;;;6.60;5.07;;;;;;;3.82;100.00;99283.69;5091219;28;20220;-79
2022/12/06 10:27:07;;;;;;;8.17;5.10;;;;;;;3.77;100.00;99288.22;5088430;28;20195;-79
2022/12/06 10:29:51;;;;;;;7.20;5.13;;;;;;;3.81;100.00;99284.59;5095083;27;20237;-78
2022/12/06 10:32:34;;;;;;;6.93;5.63;;;;;;;3.85;100.00;99280.09;5040002;28;20197;-78
2022/12/06 10:35:16;;;;;;;7.17;5.10;;;;;;;3.99;100.00;99286.56;5052218;28;20641;-80
2022/12/06 10:37:59;;;;;;;8.57;6.57;;;;;;;3.91;100.00;99283.34;5051975;28;20205;-81
2022/12/06 10:40:31;;;;;;;8.00;5.80;;;;;;;3.98;100.00;99282.25;5049440;28;20197;-80
2022/12/06 10:43:11;;;;;;;7.20;5.40;;;;;;;4.05;100.00;99279.38;5050311;28;20208;-81
2022/12/06 10:48:43;;;;;;;5.87;4.73;;;;;;;4.06;100.00;99281.97;5052062;28;20209;-80
2022/12/06 10:51:17;;;;;;;7.10;5.30;;;;;;;4.08;100.00;99271.44;5083053;28;20265;-80
2022/12/06 10:53:52;;;;;;;7.27;5.47;;;;;;;4.20;100.00;99279.69;5090255;28;20203;-80
2022/12/06 10:56:27;;;;;;;10.23;7.63;;;;;;;4.07;100.00;99278.44;5092819;28;20223;-81
2022/12/06 10:59:01;;;;;;;7.00;4.70;;;;;;;4.24;100.00;99278.66;5090429;28;20187;-80
2022/12/06 11:01:35;;;;;;;6.80;4.93;;;;;;;4.27;100.00;99273.31;5092961;28;20199;-81
2022/12/06 11:04:13;;;;;;;6.80;5.13;;;;;;;4.16;100.00;99277.25;5090450;28;20209;-80
2022/12/06 11:06:49;;;;;;;8.67;4.97;;;;;;;4.34;100.00;99276.56;5051382;28;20659;-80
2022/12/06 11:09:30;;;;;;;6.03;4.27;;;;;;;4.22;100.00;99271.78;5046453;28;20205;-81
2022/12/06 11:11:59;;;;;;;5.83;4.53;;;;;;;4.27;100.00;99273.31;5043201;28;20220;-80
2022/12/06 11:14:37;;;;;;;9.33;4.30;;;;;;;4.41;100.00;99259.69;5051442;28;20193;-79
2022/12/06 11:17:22;;;;;;;6.33;4.60;;;;;;;4.23;100.00;99265.63;5018529;28;20193;-80
2022/12/06 11:19:53;;;;;;;4.90;4.00;;;;;;;4.23;100.00;99263.84;5002112;28;20193;-80
2022/12/06 11:22:32;;;;;;;5.57;4.20;;;;;;;4.25;100.00;99262.06;4991852;28;20195;-80
2022/12/06 11:25:09;;;;;;;6.43;4.63;;;;;;;4.24;100.00;99260.31;5014258;28;20186;-80
2022/12/06 11:27:45;;;;;;;5.30;4.00;;;;;;;4.39;100.00;99263.28;5028231;28;20285;-80
2022/12/06 11:30:19;;;;;;;5.57;4.20;;;;;;;4.41;100.00;99258.84;5026827;28;20217;-80
2022/12/06 11:32:54;;;;;;;5.00;3.67;;;;;;;4.46;100.00;99242.03;5032148;28;20197;-80
2022/12/06 11:35:25;;;;;;;6.13;3.90;;;;;;;4.50;100.00;99240.16;4999493;28;20247;-80
2022/12/06 11:37:58;;;;;;;5.47;4.00;;;;;;;4.54;100.00;99239.97;5028507;28;20226;-80
2022/12/06 11:40:30;;;;;;;4.57;3.90;;;;;;;4.48;100.00;99234.97;5030146;28;20247;-81
2022/12/06 11:43:02;;;;;;;6.07;3.90;;;;;;;4.44;100.00;99233.38;5031112;28;20205;-80
2022/12/06 11:45:34;;;;;;;5.20;4.13;;;;;;;4.52;100.00;99235.69;5028547;28;20201;-80
2022/12/06 11:48:13;;;;;;;4.93;4.10;;;;;;;4.52;100.00;99235.69;5028004;28;20240;-80
2022/12/06 11:50:42;;;;;;;5.83;3.67;;;;;;;4.53;100.00;99225.13;5030943;28;20673;-80
2022/12/06 11:53:17;;;;;;;4.73;3.73;;;;;;;4.64;100.00;99223.91;5029861;28;20206;-80
2022/12/06 11:55:49;;;;;;;5.23;4.17;;;;;;;4.65;100.00;99218.59;5026724;28;20227;-80
2022/12/06 11:58:26;;;;;;;4.30;3.63;;;;;;;4.67;100.00;99223.75;5026566;28;20726;-80
2022/12/06 12:01:00;;;;;;;4.17;3.37;;;;;;;4.58;100.00;99224.97;5082690;28;20321;-80
2022/12/06 12:03:31;;;;;;;7.37;4.07;;;;;;;4.54;100.00;99221.63;5095994;27;20226;-80
2022/12/06 12:06:21;;;;;;;5.67;3.70;;;;;;;4.69;100.00;99229.78;5094271;28;20203;-81
2022/12/06 12:08:57;;;;;;;5.50;3.90;;;;;;;4.69;100.00;99222.78;5092824;28;20554;-80
2022/12/06 12:11:29;;;;;;;4.70;3.30;;;;;;;4.74;100.00;99218.22;5092807;28;20238;-81
2022/12/06 12:14:02;;;;;;;4.03;3.17;;;;;;;4.70;100.00;99224.50;5093057;28;20195;-81
2022/12/06 12:16:39;;;;;;;4.43;3.43;;;;;;;4.68;100.00;99220.22;5058524;28;20662;-80
2022/12/06 12:19:31;;;;;;;3.47;3.17;;;;;;;4.62;100.00;99220.44;5090286;28;20219;-80
2022/12/06 12:22:13;;;;;;;4.03;3.17;;;;;;;4.57;100.00;99223.25;5059011;28;20320;-80